Latest Weather Observations for Murrurundi Gap

IDN60801

Issued at 3:32 pm EST Monday 27 May 2019 (issued every 10 minutes, with the page automatically refreshed every 10 minutes)

About weather observations | Map of weather stations | Latest weather observations for NSW | Other Formats
Station Details ID: 061392 Name: MURRURUNDI GAP AWS Lat: -31.74 Lon: 150.79 Height: 729.4 m
Data from the previous 72 hours. | See also: Recent months at Murrurundi Gap
Date/Time
EST
Temp
°C
App
Temp
°C
Dew
Point
°C
Rel
Hum
%
Delta-T
°C
Wind Press
QNH
hPa
Press
MSL
hPa
Rain since
9am
mm
Dir  Spd
km/h
Gust
km/h
Spd
kts
Gust
kts
27/03:30pm 12.1 -0.4 2.3 51 4.4 NW 57 76 31 41 1010.6 1009.4 0.0
27/03:00pm 12.4 -1.0 1.4 47 4.9 NW 61 83 33 45 1010.1 1008.9 0.0
27/02:30pm 13.4 0.0 1.4 44 5.4 NW 61 82 33 44 1009.6 1008.5 0.0
27/02:14pm 13.3 0.3 1.3 44 5.4 NW 59 80 32 43 1009.5 1008.4 0.0
27/02:00pm 13.0 0.5 2.0 47 5.0 NW 57 72 31 39 1010.2 1009.0 0.0
27/01:36pm 12.9 1.7 1.6 46 5.1 NW 50 72 27 39 1010.0 1008.8 0.0
27/01:30pm 12.5 1.4 2.4 50 4.6 NW 50 67 27 36 1010.5 1009.3 0.0
27/01:04pm 11.9 1.5 2.1 51 4.4 NW 46 65 25 35 1010.5 1009.3 0.0
27/01:00pm 11.9 1.6 2.6 53 4.2 NW 46 61 25 33 1010.7 1009.6 0.0
27/12:31pm 12.7 0.9 2.8 51 4.5 NW 54 72 29 39 1011.1 1010.0 0.0
27/12:30pm 12.7 1.3 2.8 51 4.5 NW 52 69 28 37 1011.0 1009.9 0.0
27/12:07pm 11.6 0.5 2.6 54 4.1 NW 50 69 27 37 1011.4 1010.2 0.0
27/12:00pm 11.5 -0.7 2.5 54 4.1 NW 56 72 30 39 1011.7 1010.5 0.0
27/11:30am 11.8 -0.4 2.5 53 4.2 NW 56 70 30 38 1012.2 1011.1 0.0
27/11:00am 11.7 -0.2 2.2 52 4.3 NW 54 70 29 38 1012.6 1011.5 0.0
27/10:34am 11.3 0.4 1.5 51 4.3 NW 48 67 26 36 1013.2 1012.1 0.0
27/10:30am 11.7 2.0 3.7 58 3.7 NW 44 59 24 32 1013.6 1012.5 0.0
27/10:00am 11.1 1.6 3.9 61 3.3 NW 43 63 23 34 1014.0 1012.9 0.0
27/09:56am 10.7 1.0 4.0 63 3.1 NW 44 63 24 34 1014.0 1012.9 0.0
27/09:30am 10.0 0.6 5.2 72 2.3 NW 44 56 24 30 1014.5 1013.4 0.0
27/09:00am 9.6 0.9 6.0 78 1.7 NW 41 48 22 26 1014.5 1013.4 0.0
27/08:30am 8.8 0.8 5.9 82 1.4 NW 37 44 20 24 1014.3 1013.2 0.0
27/08:00am 8.5 -0.2 5.8 83 1.3 NNW 41 50 22 27 1013.8 1012.7 0.0
27/07:30am 7.5 0.2 5.5 87 0.9 NW 33 46 18 25 1014.0 1012.9 0.0
27/07:00am 7.4 -0.7 5.4 87 0.9 NW 37 44 20 24 1013.7 1012.6 0.0
27/06:30am 7.3 -0.4 5.3 87 0.9 NW 35 43 19 23 1013.9 1012.8 0.0
27/06:00am 7.3 0.0 5.3 87 0.9 NW 33 39 18 21 1013.8 1012.7 0.0
27/05:30am 7.8 0.7 5.3 84 1.2 NW 32 37 17 20 1013.8 1012.7 0.0
27/05:00am 8.1 0.7 5.0 81 1.4 NW 33 39 18 21 1013.6 1012.5 0.0
27/04:30am 8.7 1.5 5.1 78 1.7 NW 32 35 17 19 1013.6 1012.5 0.0
27/04:00am 9.4 2.6 5.0 74 2.1 NW 30 35 16 19 1013.6 1012.5 0.0
27/03:30am 9.2 2.4 5.0 75 2.0 NW 30 33 16 18 1013.8 1012.7 0.0
27/03:00am 9.2 2.8 5.0 75 2.0 NW 28 32 15 17 1014.1 1013.0 0.0
27/02:30am 9.8 3.7 5.0 72 2.3 NW 26 32 14 17 1014.4 1013.3 0.0
27/02:00am 10.2 4.2 5.2 71 2.4 NW 26 32 14 17 1014.8 1013.7 0.0
27/01:30am 9.8 4.2 5.4 74 2.1 NW 24 30 13 16 1015.0 1013.9 0.0
27/01:00am 9.8 4.2 5.4 74 2.1 NW 24 30 13 16 1015.2 1014.1 0.0
27/12:30am 10.5 5.3 5.7 72 2.3 NW 22 28 12 15 1015.4 1014.3 0.0
27/12:00am 10.0 4.7 5.2 72 2.3 NW 22 30 12 16 1015.6 1014.6 0.0
 
Date/Time
EST
Temp
°C
App
Temp
°C
Dew
Point
°C
Rel
Hum
%
Delta-T
°C
Wind Press
QNH
hPa
Press
MSL
hPa
Rain since
9am
mm
Dir  Spd
km/h
Gust
km/h
Spd
kts
Gust
kts
26/11:30pm 10.5 5.6 5.3 70 2.5 NW 20 28 11 15 1016.1 1015.0 0.0
26/11:00pm 10.6 5.7 4.9 68 2.7 NW 20 24 11 13 1016.2 1015.1 0.0
26/10:30pm 11.4 6.5 5.3 66 2.9 NW 20 24 11 13 1016.2 1015.1 0.0
26/10:00pm 11.4 6.4 4.8 64 3.1 NW 20 24 11 13 1016.5 1015.4 0.0
26/09:30pm 11.8 6.9 5.0 63 3.3 NW 20 24 11 13 1016.6 1015.5 0.0
26/09:00pm 12.4 7.5 4.9 60 3.6 NW 20 26 11 14 1016.7 1015.7 0.0
26/08:30pm 12.8 7.5 4.8 58 3.8 NW 22 26 12 14 1016.6 1015.5 0.0
26/08:00pm 13.6 7.9 5.0 56 4.2 NW 24 28 13 15 1016.5 1015.4 0.0
26/07:30pm 13.9 8.6 4.8 54 4.4 NW 22 32 12 17 1016.4 1015.3 0.0
26/07:00pm 14.4 9.5 5.0 53 4.6 NW 20 30 11 16 1016.4 1015.3 0.0
26/06:30pm 15.3 10.4 5.0 50 5.1 NW 20 28 11 15 1016.2 1015.1 0.0
26/06:00pm 15.1 10.1 4.8 50 5.0 NW 20 24 11 13 1015.9 1014.8 0.0
26/05:30pm 16.3 10.2 4.7 46 5.7 NW 26 32 14 17 1015.6 1014.6 0.0
26/05:00pm 16.9 10.4 4.6 44 6.1 NW 28 35 15 19 1015.2 1014.1 0.0
26/04:30pm 17.1 10.2 4.8 44 6.1 NW 30 39 16 21 1014.9 1013.8 0.0
26/04:00pm 17.3 10.4 4.6 43 6.3 NW 30 37 16 20 1014.9 1013.8 0.0
26/03:30pm 17.6 9.4 4.6 42 6.4 NW 37 50 20 27 1014.6 1013.5 0.0
26/03:00pm 17.2 9.8 4.9 44 6.1 NW 33 43 18 23 1015.1 1014.0 0.0
26/02:30pm 17.4 10.1 4.7 43 6.3 NW 32 50 17 27 1015.1 1014.0 0.0
26/02:00pm 17.3 10.5 4.9 44 6.2 NW 30 37 16 20 1015.4 1014.3 0.0
26/01:30pm 16.6 9.3 5.3 47 5.6 NW 33 43 18 23 1015.9 1014.8 0.0
26/01:00pm 15.7 9.5 4.4 47 5.5 NW 26 35 14 19 1016.2 1015.1 0.0
26/12:30pm 15.3 8.8 4.7 49 5.2 NW 28 35 15 19 1016.6 1015.5 0.0
26/12:00pm 15.6 8.8 5.2 50 5.1 NW 30 35 16 19 1017.3 1016.2 0.0
26/11:30am 15.0 8.1 4.7 50 5.0 NW 30 39 16 21 1017.9 1016.9 0.0
26/11:00am 15.4 8.6 5.0 50 5.1 NW 30 35 16 19 1018.2 1017.2 0.0
26/10:30am 15.1 9.6 6.1 55 4.5 NW 24 32 13 17 1018.5 1017.5 0.0
26/10:00am 14.3 8.7 5.4 55 4.4 NW 24 28 13 15 1019.0 1017.9 0.0
26/09:30am 13.9 8.3 5.5 57 4.1 NW 24 30 13 16 1018.9 1017.8 0.0
26/09:00am 12.8 6.7 5.0 59 3.7 WNW 26 32 14 17 1019.2 1018.2 0.0
26/08:30am 12.5 7.3 5.4 62 3.4 NW 22 26 12 14 1018.4 1017.4 0.0
26/08:00am 11.4 6.5 5.1 65 3.0 NW 20 24 11 13 1018.3 1017.3 0.0
26/07:30am 10.4 5.4 4.5 67 2.8 NW 20 22 11 12 1018.1 1017.1 0.0
26/07:00am 9.5 4.5 4.5 71 2.3 NW 20 22 11 12 1018.2 1017.2 0.0
26/06:30am 9.7 5.3 4.7 71 2.3 NW 17 19 9 10 1018.0 1017.0 0.0
26/06:00am 10.7 6.3 4.6 66 2.9 WNW 17 20 9 11 1017.8 1016.7 0.0
26/05:30am 11.1 6.1 4.6 64 3.1 NW 20 24 11 13 1017.4 1016.3 0.0
26/05:00am 11.1 6.1 4.8 65 3.0 NW 20 24 11 13 1017.6 1016.5 0.0
26/04:30am 10.9 6.2 5.0 67 2.8 NW 19 20 10 11 1017.6 1016.5 0.0
26/04:00am 10.9 6.5 4.8 66 2.9 NW 17 19 9 10 1017.9 1016.9 0.0
26/03:30am 11.3 6.9 5.0 65 3.0 WNW 17 17 9 9 1017.9 1016.9 0.0
26/03:00am 12.0 8.0 5.0 62 3.3 WNW 15 20 8 11 1017.9 1016.9 0.0
26/02:30am 11.3 7.6 4.7 64 3.1 WNW 13 15 7 8 1018.2 1017.2 0.0
26/02:00am 11.8 7.4 5.0 63 3.2 NW 17 19 9 10 1018.4 1017.4 0.0
26/01:30am 11.9 7.5 4.9 62 3.3 NW 17 19 9 10 1018.7 1017.6 0.0
26/01:00am 12.4 8.4 4.9 60 3.6 WNW 15 17 8 9 1019.1 1018.1 0.0
26/12:30am 12.6 9.0 4.8 59 3.7 WNW 13 15 7 8 1019.3 1018.3 0.0
26/12:00am 12.8 9.2 5.0 59 3.7 WNW 13 15 7 8 1019.6 1018.6 0.0
 
Date/Time
EST
Temp
°C
App
Temp
°C
Dew
Point
°C
Rel
Hum
%
Delta-T
°C
Wind Press
QNH
hPa
Press
MSL
hPa
Rain since
9am
mm
Dir  Spd
km/h
Gust
km/h
Spd
kts
Gust
kts
25/11:30pm 13.2 9.6 4.9 57 4.0 WNW 13 15 7 8 1019.8 1018.8 0.0
25/11:00pm 13.6 9.9 4.7 55 4.3 NW 13 15 7 8 1020.0 1019.0 0.0
25/10:30pm 13.9 9.9 4.8 54 4.4 WNW 15 17 8 9 1020.3 1019.3 0.0
25/10:00pm 14.3 9.9 4.6 52 4.7 NW 17 20 9 11 1020.4 1019.4 0.0
25/09:30pm 14.1 9.6 4.4 52 4.7 NW 17 19 9 10 1020.3 1019.3 0.0
25/09:00pm 14.5 10.8 4.5 51 4.8 NW 13 17 7 9 1020.4 1019.4 0.0
25/08:30pm 14.2 10.8 4.2 51 4.8 NW 11 15 6 8 1020.6 1019.6 0.0
25/08:00pm 14.4 11.5 4.4 51 4.8 NW 9 11 5 6 1020.6 1019.6 0.0
25/07:30pm 14.7 10.9 4.1 49 5.1 NW 13 15 7 8 1020.5 1019.5 0.0
25/07:00pm 14.9 11.6 4.3 49 5.1 NW 11 13 6 7 1020.4 1019.4 0.0
25/06:30pm 15.2 11.9 4.3 48 5.3 NW 11 15 6 8 1020.3 1019.3 0.0
25/06:00pm 15.3 11.6 4.7 49 5.2 NNW 13 17 7 9 1020.0 1019.0 0.0
25/05:30pm 15.3 11.7 5.2 51 5.0 NW 13 17 7 9 1019.7 1018.7 0.0
25/05:00pm 15.6 12.2 5.8 52 4.9 NW 13 19 7 10 1019.6 1018.6 0.0
25/04:30pm 16.3 12.8 5.6 49 5.4 NNW 13 17 7 9 1019.5 1018.5 0.0
25/04:00pm 17.2 12.6 5.8 47 5.7 NNW 19 26 10 14 1019.5 1018.5 0.0
25/03:30pm 17.2 12.5 5.2 45 6.0 NNW 19 26 10 14 1019.5 1018.5 0.0
25/03:00pm 17.7 12.5 5.3 44 6.2 NW 22 30 12 16 1019.5 1018.5 0.0
25/02:30pm 18.5 13.8 6.0 44 6.4 WNW 20 28 11 15 1019.7 1018.7 0.0
25/02:00pm 18.1 12.5 5.3 43 6.4 NW 24 32 13 17 1019.8 1018.8 0.0
25/01:30pm 18.0 11.8 6.2 46 6.0 NW 28 35 15 19 1020.2 1019.1 0.0
25/01:00pm 18.2 12.4 6.1 45 6.2 NW 26 35 14 19 1020.5 1019.5 0.0
25/12:30pm 17.8 11.6 6.0 46 6.0 NW 28 33 15 18 1020.9 1019.9 0.0
25/12:00pm 17.8 12.6 7.2 50 5.5 WNW 24 30 13 16 1021.4 1020.5 0.0
25/11:30am 17.3 13.1 7.6 53 5.1 WNW 19 26 10 14 1022.0 1021.0 0.0
25/11:00am 16.6 12.4 7.5 55 4.7 NW 19 26 10 14 1022.5 1021.5 0.0
25/10:30am 16.1 11.8 7.1 55 4.6 NW 19 24 10 13 1022.8 1021.9 0.0
25/10:00am 15.4 11.9 7.4 59 4.1 WNW 15 17 8 9 1023.2 1022.2 0.0
25/09:30am 14.8 11.3 7.4 61 3.8 NW 15 17 8 9 1023.4 1022.4 0.0
25/09:00am 14.9 11.4 7.2 60 3.9 NW 15 19 8 10 1023.5 1022.5 0.0
25/08:30am 14.4 10.9 7.0 61 3.8 WNW 15 15 8 8 1023.3 1022.3 0.0
25/08:00am 13.7 10.4 6.6 62 3.5 WNW 13 15 7 8 1023.2 1022.2 0.0
25/07:30am 12.9 9.6 6.3 64 3.3 WNW 13 13 7 7 1023.2 1022.2 0.0
25/07:00am 12.5 9.5 6.1 65 3.1 WNW 11 13 6 7 1023.1 1022.1 0.0
25/06:30am 13.0 10.0 6.1 63 3.4 NW 11 13 6 7 1022.9 1022.0 0.0
25/06:00am 13.1 10.1 6.2 63 3.4 WNW 11 13 6 7 1022.7 1021.8 0.0
25/05:30am 12.9 9.9 6.0 63 3.4 WNW 11 13 6 7 1022.6 1021.7 0.0
25/05:00am 12.2 9.2 5.8 65 3.1 W 11 11 6 6 1022.5 1021.5 0.0
25/04:30am 13.6 11.0 6.0 60 3.8 W 9 13 5 7 1022.5 1021.5 0.0
25/04:00am 13.8 11.5 5.9 59 3.9 WNW 7 11 4 6 1022.5 1021.5 0.0
25/03:30am 13.6 12.7 6.0 60 3.8 CALM 0 0 0 0 1022.4 1021.4 0.0
25/03:00am 13.6 12.7 6.0 60 3.7 CALM 0 0 0 0 1022.5 1021.5 0.0
25/02:30am 13.8 12.8 5.7 58 4.0 CALM 0 0 0 0 1022.8 1021.9 0.0
25/02:00am 14.0 11.6 5.4 56 4.2 WNW 7 9 4 5 1023.1 1022.1 0.0
25/01:30am 14.1 13.0 4.9 54 4.5 CALM 0 0 0 0 1023.3 1022.3 0.0
25/01:00am 14.5 13.5 5.6 55 4.4 CALM 0 6 0 3 1023.4 1022.4 0.0
25/12:30am 14.3 12.0 5.7 56 4.2 SE 7 9 4 5 1023.5 1022.5 0.0
25/12:00am 14.4 11.8 6.0 57 4.2 ESE 9 11 5 6 1023.5 1022.5 0.0
 
Date/Time
EST
Temp
°C
App
Temp
°C
Dew
Point
°C
Rel
Hum
%
Delta-T
°C
Wind Press
QNH
hPa
Press
MSL
hPa
Rain since
9am
mm
Dir  Spd
km/h
Gust
km/h
Spd
kts
Gust
kts
24/11:30pm 14.0 11.4 6.1 59 3.9 SE 9 11 5 6 1023.6 1022.6 0.0
24/11:00pm 13.9 11.4 6.5 61 3.7 SE 9 9 5 5 1023.6 1022.6 0.0
24/10:30pm 14.7 13.9 6.3 57 4.2 CALM 0 0 0 0 1023.8 1022.9 0.0
24/10:00pm 14.8 14.0 6.4 57 4.2 CALM 0 0 0 0 1023.8 1022.9 0.0
24/09:30pm 15.1 14.3 6.4 56 4.4 CALM 0 0 0 0 1023.9 1023.0 0.0
24/09:00pm 15.5 14.8 6.8 56 4.4 CALM 0 0 0 0 1024.1 1023.2 0.0
24/08:30pm 15.6 14.8 6.6 55 4.6 CALM 0 0 0 0 1024.1 1023.2 0.0
24/08:00pm 15.7 14.9 6.7 55 4.6 CALM 0 0 0 0 1024.1 1023.2 0.0
24/07:30pm 15.8 15.0 6.5 54 4.7 CALM 0 0 0 0 1024.1 1023.2 0.0
24/07:00pm 15.8 15.0 6.3 53 4.8 CALM 0 2 0 1 1024.2 1023.3 0.0
24/06:30pm 16.3 14.1 6.4 52 5.0 WNW 7 9 4 5 1024.0 1023.1 0.0
24/06:00pm 16.5 13.9 6.3 51 5.2 NW 9 11 5 6 1023.8 1022.9 0.0
24/05:30pm 16.5 13.9 6.1 50 5.3 NW 9 11 5 6 1023.7 1022.7 0.0
24/05:00pm 16.9 14.0 4.9 45 5.9 NNW 9 13 5 7 1023.5 1022.5 0.0
24/04:30pm 17.6 14.8 5.2 44 6.2 NNW 9 13 5 7 1023.3 1022.3 0.0
24/04:00pm 18.5 14.8 4.3 39 7.0 NW 13 17 7 9 1023.2 1022.2 0.0

Other formats

Comma delimited format used in spreadsheet applications
http://www.bom.gov.au/fwo/IDN60801/IDN60801.95747.axf

JavaScript Object Notation format (JSON) in row-major order
http://www.bom.gov.au/fwo/IDN60801/IDN60801.95747.json

Data quality

Most of these data are generated automatically and are frequently updated. Quality checks on data are not normally performed. It is possible for incorrect values to appear. Refer to information at About Latest Weather Observations and please check the disclaimer before using these data.